KRYY/RYY METAR and TAF weather

Enter ICAO airport designator
Station Type Date Time Source
KRYY METAR 2021/06/24 06:50 UTC NOAA

KRYY 240650Z AUTO 08005KT 10SM SCT070 21/17 A3019 RMK AO2 SLP941 T02110167 PNO $


Station Type Date Time Source
KRYY Decoded METAR 2021/06/24 06:50 UTC NOAA

Marietta, Cobb County-McCollum Field Airport, GA, United States (KRYY) 34-00-47N 084-35-55W
Jun 24, 2021 - 02:50 AM EDT / 2021.06.24 0650 UTC
Wind: from the E (080 degrees) at 6 MPH (5 KT):0
Visibility: 10 mile(s):0
Sky conditions: partly cloudy
Temperature: 70.0 F (21.1 C)
Dew Point: 62.1 F (16.7 C)
Relative Humidity: 75%
Pressure (altimeter): 30.19 in. Hg (1022 hPa)
ob: KRYY 240650Z AUTO 08005KT 10SM SCT070 21/17 A3019 RMK AO2 SLP941 T02110167 PNO
cycle: 7

Station Type Date Time Source
KRYY TAF 2021/06/24 06:33 UTC NOAA

TAF KRYY 240530Z 2406/2506 12007KT P6SM FEW060
FM241200 09007KT P6SM FEW008 BKN018
FM241700 11011KT P6SM FEW030 BKN040
FM242100 11009KT P6SM SCT100

Example: see airport list